createdAt,value
2023-05-04T00:00:03.297Z,53.60
2023-05-04T00:01:03.187Z,53.60
2023-05-04T00:02:03.392Z,53.70
2023-05-04T00:03:03.619Z,53.70
2023-05-04T00:04:03.853Z,53.60
2023-05-04T00:05:03.913Z,53.60
2023-05-04T00:06:04.095Z,53.70
2023-05-04T00:07:04.290Z,53.70
2023-05-04T00:08:04.431Z,53.70
2023-05-04T00:09:04.619Z,53.80
2023-05-04T00:10:05.034Z,53.80
2023-05-04T00:11:04.962Z,53.83
2023-05-04T00:12:05.152Z,53.83
2023-05-04T00:13:05.333Z,53.83
2023-05-04T00:14:05.491Z,53.83
2023-05-04T00:15:05.669Z,53.93
2023-05-04T00:16:06.686Z,53.93
2023-05-04T00:17:06.043Z,54.03
2023-05-04T00:18:06.213Z,54.03
2023-05-04T00:19:06.373Z,54.03
2023-05-04T00:20:06.824Z,54.03
2023-05-04T00:21:06.733Z,54.13
2023-05-04T00:22:06.912Z,54.13
2023-05-04T00:23:07.086Z,54.13
2023-05-04T00:24:07.272Z,54.16
2023-05-04T00:25:07.459Z,54.16
2023-05-04T00:26:07.617Z,54.16
2023-05-04T00:27:07.790Z,54.16
2023-05-04T00:28:07.971Z,54.26
2023-05-04T00:29:08.155Z,54.26
2023-05-04T00:30:08.300Z,54.26
2023-05-04T00:31:08.496Z,54.26
2023-05-04T00:32:08.668Z,54.36
2023-05-04T00:33:08.904Z,54.36
2023-05-04T00:34:09.053Z,54.36
2023-05-04T00:35:09.195Z,54.36
2023-05-04T00:36:09.347Z,54.36
2023-05-04T00:37:09.523Z,54.46
2023-05-04T00:38:09.719Z,54.46
2023-05-04T00:39:09.878Z,54.46
2023-05-04T00:40:10.060Z,54.46
2023-05-04T00:41:10.214Z,54.46
2023-05-04T00:42:10.410Z,54.46
2023-05-04T00:43:10.552Z,54.46
2023-05-04T00:44:10.736Z,54.56
2023-05-04T00:45:10.903Z,54.56
2023-05-04T00:46:11.129Z,54.56
2023-05-04T00:47:11.352Z,54.56
2023-05-04T00:48:11.486Z,54.69
2023-05-04T00:49:11.584Z,54.59
2023-05-04T00:50:11.773Z,54.69
2023-05-04T00:51:12.041Z,54.69
2023-05-04T00:52:12.136Z,54.69
2023-05-04T00:53:12.303Z,54.69
2023-05-04T00:54:12.446Z,54.69
2023-05-04T00:55:12.658Z,54.69
2023-05-04T00:56:12.847Z,54.79
2023-05-04T00:57:12.997Z,54.69
2023-05-04T00:58:13.193Z,54.69
2023-05-04T00:59:13.344Z,54.79
2023-05-04T01:00:13.506Z,54.79
2023-05-04T01:01:13.733Z,54.79
2023-05-04T01:02:13.868Z,54.79
2023-05-04T01:03:14.165Z,54.79
2023-05-04T01:04:14.347Z,54.79
2023-05-04T01:05:14.430Z,54.89
2023-05-04T01:06:14.618Z,54.89
2023-05-04T01:07:14.756Z,54.79
2023-05-04T01:08:14.942Z,54.89
2023-05-04T01:09:15.102Z,54.89
2023-05-04T01:10:15.298Z,54.92
2023-05-04T01:11:15.510Z,54.92
2023-05-04T01:12:15.684Z,54.92
2023-05-04T01:13:15.929Z,54.92
2023-05-04T01:14:16.017Z,55.02
2023-05-04T01:15:16.199Z,55.02
2023-05-04T01:16:16.432Z,55.02
2023-05-04T01:17:16.548Z,55.02
2023-05-04T01:18:16.757Z,55.02
2023-05-04T01:19:16.882Z,55.02
2023-05-04T01:20:17.083Z,55.02
2023-05-04T01:21:17.255Z,55.12
2023-05-04T01:22:17.470Z,55.12
2023-05-04T01:23:17.635Z,55.22
2023-05-04T01:24:17.791Z,55.12
2023-05-04T01:25:17.966Z,55.12
2023-05-04T01:26:18.186Z,55.12
2023-05-04T01:27:18.328Z,55.22
2023-05-04T01:28:18.503Z,55.22
2023-05-04T01:29:18.677Z,55.25
2023-05-04T01:30:18.856Z,55.25
2023-05-04T01:31:19.072Z,55.25
2023-05-04T01:32:19.215Z,55.25
2023-05-04T01:33:19.351Z,55.25
2023-05-04T01:34:19.525Z,55.35
2023-05-04T01:35:19.776Z,55.35
2023-05-04T01:36:19.908Z,55.35
2023-05-04T01:37:20.057Z,55.35
2023-05-04T01:38:20.235Z,55.35
2023-05-04T01:39:20.420Z,55.45
2023-05-04T01:40:20.591Z,55.45
2023-05-04T01:41:20.780Z,55.45
2023-05-04T01:42:20.954Z,55.45
2023-05-04T01:43:21.127Z,55.47
2023-05-04T01:44:21.315Z,55.45
2023-05-04T01:45:21.474Z,55.55
2023-05-04T01:46:21.704Z,55.58
2023-05-04T01:47:21.990Z,55.58
2023-05-04T01:48:21.998Z,55.58
2023-05-04T01:49:22.181Z,55.58
2023-05-04T01:50:22.329Z,55.58
2023-05-04T01:51:22.526Z,55.58
2023-05-04T01:52:22.720Z,55.58
2023-05-04T01:53:22.818Z,55.68
2023-05-04T01:54:23.021Z,55.68
2023-05-04T01:55:23.209Z,55.68
2023-05-04T01:56:23.365Z,55.68
2023-05-04T01:57:23.537Z,55.68
2023-05-04T01:58:23.720Z,55.68
2023-05-04T01:59:23.895Z,55.78
2023-05-04T02:00:24.124Z,55.71
2023-05-04T02:01:24.291Z,55.78
2023-05-04T02:02:24.430Z,55.78
2023-05-04T02:03:24.729Z,55.80
2023-05-04T02:04:24.817Z,55.80
2023-05-04T02:05:24.959Z,55.80
2023-05-04T02:06:25.134Z,55.80
2023-05-04T02:07:25.314Z,55.80
2023-05-04T02:08:25.489Z,55.91
2023-05-04T02:09:25.688Z,55.91
2023-05-04T02:10:25.841Z,55.91
2023-05-04T02:11:26.015Z,55.91
2023-05-04T02:12:26.209Z,55.91
2023-05-04T02:13:26.374Z,56.01
2023-05-04T02:14:26.579Z,55.91
2023-05-04T02:15:26.739Z,56.01
2023-05-04T02:16:26.977Z,56.01
2023-05-04T02:17:27.107Z,56.01
2023-05-04T02:18:27.288Z,56.01
2023-05-04T02:19:27.448Z,56.01
2023-05-04T02:20:27.607Z,56.11
2023-05-04T02:21:27.780Z,56.11
2023-05-04T02:22:27.997Z,56.11
2023-05-04T02:23:28.123Z,56.11
2023-05-04T02:24:28.319Z,56.13
2023-05-04T02:25:28.489Z,56.13
2023-05-04T02:26:28.677Z,56.13
2023-05-04T02:27:28.875Z,56.24
2023-05-04T02:28:29.023Z,56.24
2023-05-04T02:29:29.165Z,56.24
2023-05-04T02:30:29.336Z,56.24
2023-05-04T02:31:29.556Z,56.34
2023-05-04T02:32:29.739Z,56.34
2023-05-04T02:33:29.846Z,56.34
2023-05-04T02:34:30.029Z,56.34
2023-05-04T02:35:30.200Z,56.44
2023-05-04T02:36:30.375Z,56.44
2023-05-04T02:37:30.576Z,56.44
2023-05-04T02:38:30.724Z,56.44
2023-05-04T02:39:30.904Z,56.44
2023-05-04T02:40:31.078Z,56.44
2023-05-04T02:41:31.280Z,56.57
2023-05-04T02:42:31.472Z,56.57
2023-05-04T02:43:31.629Z,56.57
2023-05-04T02:44:31.792Z,56.57
2023-05-04T02:45:32.052Z,56.57
2023-05-04T02:46:32.158Z,56.57
2023-05-04T02:47:32.357Z,56.67
2023-05-04T02:48:32.502Z,56.67
2023-05-04T02:49:32.722Z,56.67
2023-05-04T02:50:32.894Z,56.67
2023-05-04T02:51:33.056Z,56.67
2023-05-04T02:52:33.189Z,56.57
2023-05-04T02:53:33.366Z,56.67
2023-05-04T02:54:33.583Z,56.67
2023-05-04T02:55:33.729Z,56.67
2023-05-04T02:56:33.912Z,56.67
2023-05-04T02:57:34.097Z,56.77
2023-05-04T02:58:34.270Z,56.67
2023-05-04T02:59:34.460Z,56.77
2023-05-04T03:00:34.637Z,56.77
2023-05-04T03:01:35.090Z,56.80
2023-05-04T03:02:35.019Z,56.80
2023-05-04T03:03:35.180Z,56.80
2023-05-04T03:04:35.414Z,56.70
2023-05-04T03:05:35.522Z,56.70
2023-05-04T03:06:35.714Z,56.80
2023-05-04T03:07:35.877Z,56.70
2023-05-04T03:08:36.067Z,56.70
2023-05-04T03:09:36.226Z,56.80
2023-05-04T03:10:36.413Z,56.80
2023-05-04T03:11:36.585Z,56.80
2023-05-04T03:12:36.779Z,56.80
2023-05-04T03:13:36.920Z,56.80
2023-05-04T03:14:37.100Z,56.80
2023-05-04T03:15:37.278Z,56.80
2023-05-04T03:16:37.491Z,56.80
2023-05-04T03:17:37.717Z,56.80
2023-05-04T03:18:58.821Z,56.80
2023-05-04T03:19:37.995Z,56.80
2023-05-04T03:20:38.186Z,56.80
2023-05-04T03:21:38.353Z,56.80
2023-05-04T03:22:38.533Z,56.80
2023-05-04T03:23:38.689Z,56.80
2023-05-04T03:24:38.869Z,56.90
2023-05-04T03:25:39.038Z,56.93
2023-05-04T03:26:39.231Z,56.90
2023-05-04T03:27:39.382Z,56.93
2023-05-04T03:28:39.562Z,56.93
2023-05-04T03:29:39.740Z,56.93
2023-05-04T03:30:39.905Z,56.93
2023-05-04T03:31:40.147Z,57.03
2023-05-04T03:32:40.318Z,56.93
2023-05-04T03:33:40.402Z,57.03
2023-05-04T03:34:40.563Z,57.03
2023-05-04T03:35:40.765Z,56.93
2023-05-04T03:36:40.899Z,57.03
2023-05-04T03:37:41.091Z,57.03
2023-05-04T03:38:41.253Z,57.13
2023-05-04T03:39:41.424Z,57.03
2023-05-04T03:40:41.592Z,57.13
2023-05-04T03:41:41.772Z,57.13
2023-05-04T03:42:41.932Z,57.13
2023-05-04T03:43:42.089Z,57.13
2023-05-04T03:44:42.273Z,57.13
2023-05-04T03:45:42.486Z,57.13
2023-05-04T03:46:42.617Z,57.13
2023-05-04T03:47:42.821Z,57.16
2023-05-04T03:48:42.956Z,57.23
2023-05-04T03:49:43.130Z,57.13
2023-05-04T03:50:43.297Z,57.13
2023-05-04T03:51:43.468Z,57.13
2023-05-04T03:52:43.642Z,57.13
2023-05-04T03:53:44.915Z,57.16
2023-05-04T03:54:44.003Z,57.23
2023-05-04T03:55:44.160Z,57.26
2023-05-04T03:56:44.324Z,57.23
2023-05-04T03:57:44.501Z,57.26
2023-05-04T03:58:44.662Z,57.26
2023-05-04T03:59:44.830Z,57.26
2023-05-04T04:00:44.996Z,57.26
2023-05-04T04:01:45.166Z,57.26
2023-05-04T04:02:45.428Z,57.26
2023-05-04T04:03:45.630Z,57.26
2023-05-04T04:04:45.710Z,57.26
2023-05-04T04:05:45.872Z,57.26
2023-05-04T04:06:46.059Z,57.16
2023-05-04T04:07:46.203Z,57.26
2023-05-04T04:08:46.388Z,57.26
2023-05-04T04:09:46.546Z,57.26
2023-05-04T04:10:46.705Z,57.26
2023-05-04T04:11:46.919Z,57.26
2023-05-04T04:12:47.127Z,57.26
2023-05-04T04:13:47.282Z,57.26
2023-05-04T04:14:47.441Z,57.26
2023-05-04T04:15:47.651Z,57.36
2023-05-04T04:16:47.827Z,57.36
2023-05-04T04:17:47.982Z,57.26
2023-05-04T04:18:48.159Z,57.36
2023-05-04T04:19:48.367Z,57.36
2023-05-04T04:20:48.504Z,57.36
2023-05-04T04:21:48.687Z,57.36
2023-05-04T04:22:48.881Z,57.36
2023-05-04T04:23:49.031Z,57.46
2023-05-04T04:24:49.210Z,57.36
2023-05-04T04:25:49.392Z,57.46
2023-05-04T04:26:49.547Z,57.56
2023-05-04T04:27:49.772Z,57.56
2023-05-04T04:28:49.873Z,57.56
2023-05-04T04:29:50.064Z,57.56
2023-05-04T04:30:50.213Z,57.56
2023-05-04T04:31:50.507Z,57.67
2023-05-04T04:32:50.636Z,57.67
2023-05-04T04:33:50.771Z,57.56
2023-05-04T04:34:50.941Z,57.67
2023-05-04T04:35:51.153Z,57.67
2023-05-04T04:36:51.338Z,57.87
2023-05-04T04:37:51.481Z,57.87
2023-05-04T04:38:51.665Z,58.07
2023-05-04T04:39:51.854Z,57.97
2023-05-04T04:40:52.026Z,57.97
2023-05-04T04:41:52.201Z,58.07
2023-05-04T04:42:52.373Z,58.07
2023-05-04T04:43:52.528Z,58.07
2023-05-04T04:44:52.686Z,58.07
2023-05-04T04:45:52.866Z,58.17
2023-05-04T04:46:53.149Z,58.28
2023-05-04T04:47:53.218Z,58.07
2023-05-04T04:48:53.398Z,58.28
2023-05-04T04:49:53.578Z,58.17
2023-05-04T04:50:53.742Z,58.17
2023-05-04T04:51:53.920Z,58.28
2023-05-04T04:52:54.100Z,58.15
2023-05-04T04:53:54.300Z,58.17
2023-05-04T04:54:54.466Z,58.35
2023-05-04T04:55:54.630Z,58.45
2023-05-04T04:56:54.795Z,58.25
2023-05-04T04:57:54.946Z,58.35
2023-05-04T04:58:55.129Z,58.35
2023-05-04T04:59:55.322Z,58.15
2023-05-04T05:00:55.559Z,58.25
2023-05-04T05:01:55.649Z,58.45
2023-05-04T05:02:55.928Z,58.35
2023-05-04T05:03:56.013Z,58.45
2023-05-04T05:04:56.289Z,58.35
2023-05-04T05:05:56.358Z,58.35
2023-05-04T05:06:56.578Z,58.45
2023-05-04T05:07:56.721Z,58.45
2023-05-04T05:08:56.915Z,58.45
2023-05-04T05:09:57.093Z,58.25
2023-05-04T05:10:57.228Z,58.45
2023-05-04T05:11:57.423Z,58.56
2023-05-04T05:12:57.625Z,58.45
2023-05-04T05:13:57.774Z,58.35
2023-05-04T05:14:57.972Z,58.45
2023-05-04T05:15:58.127Z,58.35
2023-05-04T05:16:58.458Z,58.45
2023-05-04T05:17:58.519Z,58.42
2023-05-04T05:18:58.694Z,58.42
2023-05-04T05:19:58.866Z,58.33
2023-05-04T05:20:59.040Z,58.42
2023-05-04T05:21:59.209Z,58.53
2023-05-04T05:22:59.373Z,58.42
2023-05-04T05:23:59.548Z,58.42
2023-05-04T05:24:59.722Z,58.42
2023-05-04T05:26:02.617Z,58.33
2023-05-04T05:27:00.034Z,58.42
2023-05-04T05:28:00.252Z,58.33
2023-05-04T05:29:00.413Z,58.33
2023-05-04T05:30:00.580Z,58.42
2023-05-04T05:31:00.872Z,58.42
2023-05-04T05:32:00.940Z,58.42
2023-05-04T05:33:01.228Z,58.22
2023-05-04T05:34:01.274Z,58.12
2023-05-04T05:35:01.454Z,58.09
2023-05-04T05:36:01.632Z,58.20
2023-05-04T05:37:01.764Z,58.40
2023-05-04T05:38:01.960Z,58.50
2023-05-04T05:39:02.096Z,58.70
2023-05-04T05:40:02.516Z,58.80
2023-05-04T05:41:02.449Z,58.91
2023-05-04T05:42:02.707Z,58.91
2023-05-04T05:43:02.789Z,58.78
2023-05-04T05:44:02.964Z,58.88
2023-05-04T05:45:03.166Z,58.78
2023-05-04T05:46:03.303Z,58.67
2023-05-04T05:47:03.466Z,58.67
2023-05-04T05:48:03.680Z,58.67
2023-05-04T05:49:03.803Z,58.58
2023-05-04T05:50:04.325Z,58.47
2023-05-04T05:51:04.183Z,58.27
2023-05-04T05:52:04.384Z,58.37
2023-05-04T05:53:04.504Z,58.27
2023-05-04T05:54:04.662Z,58.14
2023-05-04T05:55:04.827Z,58.14
2023-05-04T05:56:05.016Z,57.93
2023-05-04T05:57:05.203Z,57.93
2023-05-04T05:58:05.362Z,57.93
2023-05-04T05:59:05.518Z,57.84
2023-05-04T06:00:05.924Z,57.73
2023-05-04T06:01:05.875Z,57.73
2023-05-04T06:02:06.072Z,57.60
2023-05-04T06:03:06.345Z,57.53
2023-05-04T06:04:06.597Z,57.50
2023-05-04T06:05:06.749Z,57.40
2023-05-04T06:06:06.793Z,57.30
2023-05-04T06:07:06.971Z,57.30
2023-05-04T06:08:07.125Z,57.30
2023-05-04T06:09:07.302Z,57.30
2023-05-04T06:10:07.804Z,56.99
2023-05-04T06:11:07.645Z,57.07
2023-05-04T06:12:07.817Z,57.07
2023-05-04T06:13:08.029Z,56.97
2023-05-04T06:14:08.130Z,56.97
2023-05-04T06:15:08.304Z,56.97
2023-05-04T06:16:08.497Z,56.97
2023-05-04T06:17:08.654Z,57.07
2023-05-04T06:18:08.855Z,56.87
2023-05-04T06:19:08.983Z,56.77
2023-05-04T06:20:09.218Z,56.64
2023-05-04T06:21:09.358Z,56.54
2023-05-04T06:22:09.516Z,56.64
2023-05-04T06:23:09.725Z,56.54
2023-05-04T06:24:09.844Z,56.64
2023-05-04T06:25:10.051Z,56.44
2023-05-04T06:26:10.211Z,56.54
2023-05-04T06:27:10.391Z,56.41
2023-05-04T06:28:10.545Z,56.31
2023-05-04T06:29:10.760Z,56.31
2023-05-04T06:30:10.893Z,56.21
2023-05-04T06:31:11.119Z,56.10
2023-05-04T06:32:11.434Z,56.01
2023-05-04T06:33:11.589Z,55.90
2023-05-04T06:34:11.579Z,55.70
2023-05-04T06:35:11.761Z,55.57
2023-05-04T06:36:11.929Z,55.47
2023-05-04T06:37:14.055Z,55.47
2023-05-04T06:38:12.246Z,55.37
2023-05-04T06:39:12.420Z,55.27
2023-05-04T06:40:12.929Z,55.37
2023-05-04T06:41:12.806Z,55.17
2023-05-04T06:42:12.974Z,54.94
2023-05-04T06:43:13.149Z,54.84
2023-05-04T06:44:13.333Z,54.84
2023-05-04T06:45:13.513Z,54.74
2023-05-04T06:46:13.730Z,54.74
2023-05-04T06:47:13.855Z,54.74
2023-05-04T06:48:14.046Z,54.53
2023-05-04T06:49:14.193Z,54.51
2023-05-04T06:50:14.357Z,54.41
2023-05-04T06:51:14.538Z,54.41
2023-05-04T06:52:14.697Z,54.41
2023-05-04T06:53:14.875Z,54.51
2023-05-04T06:54:15.075Z,54.21
2023-05-04T06:55:15.233Z,53.88
2023-05-04T06:56:15.409Z,53.98
2023-05-04T06:57:15.559Z,53.98
2023-05-04T06:58:15.718Z,53.78
2023-05-04T06:59:15.923Z,53.58
2023-05-04T07:00:16.086Z,53.67
2023-05-04T07:01:18.185Z,53.58
2023-05-04T07:02:16.433Z,53.45
2023-05-04T07:03:16.668Z,53.34
2023-05-04T07:04:16.802Z,53.34
2023-05-04T07:05:16.970Z,53.25
2023-05-04T07:06:17.126Z,54.16
2023-05-04T07:07:17.295Z,55.27
2023-05-04T07:08:17.447Z,55.65
2023-05-04T07:09:17.619Z,55.94
2023-05-04T07:10:17.765Z,55.85
2023-05-04T07:11:17.934Z,55.85
2023-05-04T07:12:18.110Z,55.62
2023-05-04T07:13:18.326Z,55.52
2023-05-04T07:14:18.517Z,55.32
2023-05-04T07:15:18.627Z,55.09
2023-05-04T07:16:18.866Z,54.99
2023-05-04T07:17:18.984Z,54.76
2023-05-04T07:18:19.148Z,54.25
2023-05-04T07:19:19.365Z,54.16
2023-05-04T07:20:19.487Z,52.92
2023-05-04T07:21:27.880Z,52.92
2023-05-04T07:22:20.882Z,52.82
2023-05-04T07:23:20.042Z,51.79
2023-05-04T07:24:20.202Z,50.68
2023-05-04T07:25:20.375Z,50.27
2023-05-04T07:26:20.557Z,50.85
2023-05-04T07:27:20.703Z,51.36
2023-05-04T07:28:20.860Z,51.66
2023-05-04T07:29:21.065Z,51.54
2023-05-04T07:30:21.221Z,50.93
2023-05-04T07:31:21.573Z,51.73
2023-05-04T07:32:21.778Z,53.75
2023-05-04T07:33:21.813Z,52.82
2023-05-04T07:34:30.561Z,52.51
2023-05-04T07:35:23.117Z,51.01
2023-05-04T07:36:22.260Z,50.08
2023-05-04T07:37:22.436Z,50.18
2023-05-04T07:38:22.594Z,50.08
2023-05-04T07:39:22.785Z,50.08
2023-05-04T07:40:22.935Z,49.85
2023-05-04T07:41:23.228Z,49.76
2023-05-04T07:42:23.280Z,48.85
2023-05-04T07:43:23.438Z,48.85
2023-05-04T07:44:23.607Z,49.53
2023-05-04T07:45:23.795Z,49.73
2023-05-04T07:46:24.064Z,50.03
2023-05-04T07:47:24.707Z,51.51
2023-05-04T07:48:26.443Z,51.31
2023-05-04T07:49:24.501Z,49.91
2023-05-04T07:50:24.730Z,50.31
2023-05-04T07:51:24.917Z,49.98
2023-05-04T07:52:24.992Z,48.68
2023-05-04T07:53:25.166Z,50.89
2023-05-04T07:54:25.353Z,51.49
2023-05-04T07:55:25.528Z,50.06
2023-05-04T07:56:25.697Z,48.05
2023-05-04T07:57:25.853Z,48.25
2023-05-04T07:58:26.019Z,46.55
2023-05-04T07:59:26.194Z,46.15
2023-05-04T08:00:26.360Z,45.72
2023-05-04T08:01:26.516Z,46.23
2023-05-04T08:02:26.868Z,47.13
2023-05-04T08:03:26.892Z,47.03
2023-05-04T08:04:27.078Z,46.61
2023-05-04T08:05:27.257Z,46.50
2023-05-04T08:06:27.425Z,46.81
2023-05-04T08:07:27.607Z,46.11
2023-05-04T08:08:27.792Z,46.30
2023-05-04T08:09:27.956Z,46.58
2023-05-04T08:10:28.100Z,45.58
2023-05-04T08:11:28.296Z,44.48
2023-05-04T08:12:28.507Z,44.88
2023-05-04T08:13:28.665Z,45.08
2023-05-04T08:14:28.824Z,45.06
2023-05-04T08:15:28.971Z,44.46
2023-05-04T08:16:29.131Z,46.16
2023-05-04T08:17:29.302Z,46.16
2023-05-04T08:18:29.474Z,46.36
2023-05-04T08:19:29.618Z,45.06
2023-05-04T08:20:29.783Z,44.74
2023-05-04T08:21:29.946Z,44.64
2023-05-04T08:22:30.118Z,43.84
2023-05-04T08:23:30.267Z,44.74
2023-05-04T08:24:30.423Z,43.93
2023-05-04T08:25:30.626Z,43.82
2023-05-04T08:26:30.768Z,44.42
2023-05-04T08:27:30.915Z,45.21
2023-05-04T08:28:31.140Z,43.51
2023-05-04T08:29:31.286Z,43.12
2023-05-04T08:30:31.456Z,42.49
2023-05-04T08:31:31.642Z,42.49
2023-05-04T08:32:33.278Z,42.60
2023-05-04T08:33:32.009Z,42.99
2023-05-04T08:34:32.175Z,43.29
2023-05-04T08:35:32.362Z,42.97
2023-05-04T08:36:32.527Z,41.27
2023-05-04T08:37:32.672Z,41.27
2023-05-04T08:38:32.858Z,40.97
2023-05-04T08:39:33.032Z,41.08
2023-05-04T08:40:33.204Z,42.35
2023-05-04T08:41:33.357Z,41.96
2023-05-04T08:42:33.525Z,41.85
2023-05-04T08:43:33.687Z,42.25
2023-05-04T08:44:33.859Z,42.15
2023-05-04T08:45:34.025Z,41.66
2023-05-04T08:46:34.188Z,40.83
2023-05-04T08:47:34.418Z,41.14
2023-05-04T08:48:34.539Z,40.44
2023-05-04T08:49:34.703Z,39.14
2023-05-04T08:50:34.847Z,39.62
2023-05-04T08:51:35.025Z,39.02
2023-05-04T08:52:35.190Z,39.02
2023-05-04T08:53:35.348Z,39.42
2023-05-04T08:54:35.530Z,39.22
2023-05-04T08:55:35.691Z,38.22
2023-05-04T08:56:35.849Z,39.20
2023-05-04T08:57:36.056Z,38.70
2023-05-04T08:58:36.180Z,39.30
2023-05-04T08:59:36.321Z,39.20
2023-05-04T09:00:36.562Z,38.80
2023-05-04T09:01:36.678Z,39.18
2023-05-04T09:02:36.863Z,39.48
2023-05-04T09:03:37.053Z,38.48
2023-05-04T09:04:37.204Z,38.18
2023-05-04T09:05:37.459Z,37.59
2023-05-04T09:06:37.538Z,38.07
2023-05-04T09:07:37.715Z,38.98
2023-05-04T09:08:37.857Z,38.37
2023-05-04T09:09:38.038Z,38.56
2023-05-04T09:10:38.253Z,38.17
2023-05-04T09:11:38.387Z,37.47
2023-05-04T09:12:38.634Z,37.55
2023-05-04T09:13:38.826Z,38.15
2023-05-04T09:14:38.860Z,38.54
2023-05-04T09:15:39.050Z,37.85
2023-05-04T09:16:39.294Z,38.75
2023-05-04T09:17:50.902Z,38.63
2023-05-04T09:18:40.603Z,38.73
2023-05-04T09:19:39.766Z,39.12
2023-05-04T09:20:39.952Z,38.13
2023-05-04T09:21:40.111Z,37.43
2023-05-04T09:22:40.286Z,37.41
2023-05-04T09:23:40.551Z,38.71
2023-05-04T09:24:40.617Z,36.82
2023-05-04T09:25:40.796Z,36.42
2023-05-04T09:26:40.962Z,37.10
2023-05-04T09:27:41.137Z,37.40
2023-05-04T09:28:41.319Z,38.79
2023-05-04T09:29:41.537Z,38.49
2023-05-04T09:30:41.715Z,38.39
2023-05-04T09:31:41.880Z,38.37
2023-05-04T09:32:42.066Z,37.28
2023-05-04T09:33:42.204Z,38.47
2023-05-04T09:34:42.403Z,39.27
2023-05-04T09:35:42.569Z,38.95
2023-05-04T09:36:42.793Z,38.95
2023-05-04T09:37:42.899Z,39.05
2023-05-04T09:38:43.108Z,38.26
2023-05-04T09:39:43.273Z,38.64
2023-05-04T09:40:43.425Z,38.04
2023-05-04T09:41:43.612Z,39.83
2023-05-04T09:42:43.772Z,39.83
2023-05-04T09:43:44.017Z,37.72
2023-05-04T09:44:44.115Z,38.32
2023-05-04T09:45:44.307Z,39.31
2023-05-04T09:46:44.537Z,38.12
2023-05-04T09:47:44.738Z,37.90
2023-05-04T09:48:44.850Z,37.81
2023-05-04T09:49:45.018Z,36.32
2023-05-04T09:50:45.220Z,38.30
2023-05-04T09:51:45.380Z,37.39
2023-05-04T09:52:45.574Z,37.39
2023-05-04T09:53:45.726Z,38.28
2023-05-04T09:54:45.942Z,37.09
2023-05-04T09:55:46.102Z,38.85
2023-05-04T09:56:46.296Z,35.69
2023-05-04T09:57:46.462Z,36.18
2023-05-04T09:58:46.637Z,37.96
2023-05-04T09:59:46.809Z,35.37
2023-05-04T10:00:46.978Z,37.55
2023-05-04T10:01:47.165Z,36.16
2023-05-04T10:02:47.393Z,36.66
2023-05-04T10:03:47.482Z,37.65
2023-05-04T10:04:47.706Z,35.95
2023-05-04T10:05:47.840Z,36.84
2023-05-04T10:06:48.002Z,36.84
2023-05-04T10:07:48.228Z,36.24
2023-05-04T10:08:48.322Z,35.75
2023-05-04T10:09:48.527Z,36.23
2023-05-04T10:10:48.634Z,36.82
2023-05-04T10:11:48.804Z,36.92
2023-05-04T10:12:49.012Z,34.94
2023-05-04T10:13:49.196Z,36.61
2023-05-04T10:14:49.336Z,35.42
2023-05-04T10:15:49.482Z,36.80
2023-05-04T10:16:49.647Z,35.42
2023-05-04T10:17:49.851Z,34.83
2023-05-04T10:18:50.022Z,35.80
2023-05-04T10:19:50.194Z,34.91
2023-05-04T10:20:50.370Z,34.91
2023-05-04T10:21:50.547Z,34.81
2023-05-04T10:22:50.729Z,34.20
2023-05-04T10:23:50.890Z,34.39
2023-05-04T10:24:51.065Z,34.00
2023-05-04T10:25:51.227Z,34.48
2023-05-04T10:26:51.379Z,34.97
2023-05-04T10:27:51.549Z,33.29
2023-05-04T10:28:51.749Z,33.29
2023-05-04T10:29:51.933Z,33.69
2023-05-04T10:30:52.091Z,31.60
2023-05-04T10:31:52.344Z,31.60
2023-05-04T10:32:52.418Z,31.50
2023-05-04T10:33:52.593Z,33.08
2023-05-04T10:34:52.781Z,32.59
2023-05-04T10:35:52.932Z,32.39
2023-05-04T10:36:53.116Z,32.49
2023-05-04T10:37:53.248Z,33.08
2023-05-04T10:38:53.451Z,31.90
2023-05-04T10:39:53.672Z,31.99
2023-05-04T10:40:53.781Z,31.70
2023-05-04T10:41:53.943Z,32.37
2023-05-04T10:42:54.102Z,32.18
2023-05-04T10:43:54.287Z,31.78
2023-05-04T10:44:54.434Z,32.37
2023-05-04T10:45:54.649Z,32.97
2023-05-04T10:46:54.769Z,32.57
2023-05-04T10:47:55.002Z,32.77
2023-05-04T10:48:55.242Z,33.46
2023-05-04T10:49:55.294Z,33.16
2023-05-04T10:50:55.469Z,32.67
2023-05-04T10:51:55.598Z,30.98
2023-05-04T10:52:56.767Z,31.27
2023-05-04T10:53:56.008Z,31.07
2023-05-04T10:54:56.171Z,31.37
2023-05-04T10:55:56.295Z,31.17
2023-05-04T10:56:56.488Z,31.37
2023-05-04T10:57:56.679Z,31.67
2023-05-04T10:58:56.855Z,31.95
2023-05-04T10:59:57.016Z,32.24
2023-05-04T11:00:57.217Z,32.24
2023-05-04T11:01:57.318Z,32.44
2023-05-04T11:02:57.573Z,32.24
2023-05-04T11:03:57.671Z,32.04
2023-05-04T11:04:57.840Z,32.24
2023-05-04T11:05:58.018Z,32.13
2023-05-04T11:06:58.189Z,32.52
2023-05-04T11:08:00.387Z,32.82
2023-05-04T11:08:58.542Z,32.52
2023-05-04T11:09:58.698Z,32.42
2023-05-04T11:10:58.882Z,32.60
2023-05-04T11:11:59.067Z,32.11
2023-05-04T11:12:59.298Z,31.82
2023-05-04T11:13:59.406Z,31.72
2023-05-04T11:14:59.595Z,32.70
2023-05-04T11:15:59.783Z,31.23
2023-05-04T11:16:59.914Z,31.62
2023-05-04T11:18:00.173Z,31.51
2023-05-04T11:19:00.319Z,31.41
2023-05-04T11:20:00.454Z,31.41
2023-05-04T11:21:00.656Z,31.41
2023-05-04T11:22:00.806Z,31.41
2023-05-04T11:23:00.994Z,31.41
2023-05-04T11:24:01.160Z,31.31
2023-05-04T11:25:01.312Z,31.80
2023-05-04T11:26:01.515Z,32.49
2023-05-04T11:27:01.645Z,31.20
2023-05-04T11:28:01.855Z,31.88
2023-05-04T11:29:02.054Z,31.20
2023-05-04T11:30:02.181Z,31.20
2023-05-04T11:31:02.515Z,31.10
2023-05-04T11:32:02.567Z,31.10
2023-05-04T11:33:02.800Z,31.59
2023-05-04T11:34:02.911Z,31.00
2023-05-04T11:35:03.278Z,30.41
2023-05-04T11:36:03.250Z,30.71
2023-05-04T11:37:03.424Z,30.41
2023-05-04T11:38:03.590Z,30.19
2023-05-04T11:39:03.748Z,30.69
2023-05-04T11:40:03.968Z,30.69
2023-05-04T11:41:04.119Z,30.49
2023-05-04T11:42:04.263Z,30.69
2023-05-04T11:43:04.440Z,30.49
2023-05-04T11:44:04.627Z,30.88
2023-05-04T11:45:04.992Z,30.79
2023-05-04T11:46:05.019Z,30.59
2023-05-04T11:47:05.149Z,30.28
2023-05-04T11:48:05.341Z,30.18
2023-05-04T11:49:05.489Z,30.38
2023-05-04T11:50:05.671Z,30.58
2023-05-04T11:51:05.797Z,30.28
2023-05-04T11:52:05.984Z,30.28
2023-05-04T11:53:06.147Z,30.28
2023-05-04T11:54:06.354Z,30.28
2023-05-04T11:55:06.705Z,30.28
2023-05-04T11:56:06.688Z,30.38
2023-05-04T11:57:06.835Z,30.17
2023-05-04T11:58:07.033Z,30.36
2023-05-04T11:59:07.204Z,30.27
2023-05-04T12:00:07.361Z,30.36
2023-05-04T12:01:07.517Z,30.46
2023-05-04T12:02:07.664Z,30.56
2023-05-04T12:03:07.988Z,30.36
2023-05-04T12:04:08.215Z,30.94
2023-05-04T12:05:08.528Z,30.35
2023-05-04T12:06:08.329Z,30.15
2023-05-04T12:07:08.526Z,29.96
2023-05-04T12:08:08.688Z,29.86
2023-05-04T12:09:08.917Z,29.76
2023-05-04T12:10:09.013Z,29.86
2023-05-04T12:11:09.172Z,29.75
2023-05-04T12:12:09.306Z,29.25
2023-05-04T12:13:09.531Z,30.24
2023-05-04T12:14:09.647Z,29.75
2023-05-04T12:15:09.852Z,29.25
2023-05-04T12:16:10.088Z,29.75
2023-05-04T12:17:10.183Z,29.75
2023-05-04T12:18:10.391Z,29.75
2023-05-04T12:19:10.568Z,29.63
2023-05-04T12:20:10.795Z,29.53
2023-05-04T12:21:10.900Z,28.95
2023-05-04T12:22:11.065Z,28.95
2023-05-04T12:23:11.249Z,29.14
2023-05-04T12:24:11.431Z,29.43
2023-05-04T12:25:11.610Z,29.33
2023-05-04T12:26:11.758Z,29.13
2023-05-04T12:27:11.950Z,29.13
2023-05-04T12:28:12.162Z,29.03
2023-05-04T12:29:12.343Z,29.03
2023-05-04T12:30:12.477Z,29.03
2023-05-04T12:31:12.696Z,28.93
2023-05-04T12:32:12.941Z,28.93
2023-05-04T12:33:12.984Z,29.22
2023-05-04T12:34:13.191Z,29.13
2023-05-04T12:35:13.359Z,29.03
2023-05-04T12:36:13.517Z,29.02
2023-05-04T12:37:13.717Z,29.11
2023-05-04T12:38:13.864Z,28.92
2023-05-04T12:39:14.021Z,28.92
2023-05-04T12:40:27.760Z,28.72
2023-05-04T12:41:15.349Z,28.63
2023-05-04T12:42:14.525Z,28.72
2023-05-04T12:43:14.686Z,28.63
2023-05-04T12:44:14.835Z,28.72
2023-05-04T12:45:14.997Z,28.72
2023-05-04T12:46:15.193Z,28.63
2023-05-04T12:47:15.322Z,28.63
2023-05-04T12:48:15.506Z,28.72
2023-05-04T12:49:15.710Z,28.61
2023-05-04T12:50:15.906Z,28.61
2023-05-04T12:51:16.061Z,28.41
2023-05-04T12:52:16.226Z,28.41
2023-05-04T12:53:16.452Z,28.31
2023-05-04T12:54:16.597Z,28.31